Time;durP1;ratioP1;P1;durP2;ratioP2;P2;SDS_P1;SDS_P2;PMS_P1;PMS_P2;Temp;Humidity;BMP_temperature;BMP_pressure;BME280_temperature;BME280_humidity;BME280_pressure;Samples;Min_cycle;Max_cycle;Signal;HPM_P1;HPM_P2
2021/01/06 00:00:56;;;;;;;52.97;22.40;;;;;;;1.70;100.00;101014.81;5030430;28;20049;-58
2021/01/06 00:03:25;;;;;;;50.15;20.63;;;;;;;1.72;100.00;101011.13;5024603;28;20045;-52
2021/01/06 00:05:53;;;;;;;43.20;19.33;;;;;;;1.68;100.00;101017.53;5027839;28;20049;-52
2021/01/06 00:08:20;;;;;;;51.80;19.63;;;;;;;1.77;100.00;101017.88;5024909;28;20052;-53
2021/01/06 00:10:50;;;;;;;50.58;20.70;;;;;;;1.71;100.00;101013.88;5024711;28;20042;-54
2021/01/06 00:13:17;;;;;;;54.72;20.30;;;;;;;1.71;100.00;101012.06;5021816;28;20452;-50
2021/01/06 00:15:46;;;;;;;56.22;22.20;;;;;;;1.68;100.00;101022.81;5028174;28;20042;-53
2021/01/06 00:18:14;;;;;;;42.80;18.85;;;;;;;1.79;100.00;101021.28;5027115;28;20041;-54
2021/01/06 00:20:41;;;;;;;46.60;20.70;;;;;;;1.79;100.00;101021.28;5025637;28;20045;-55
2021/01/06 00:23:08;;;;;;;51.40;20.45;;;;;;;1.76;100.00;101008.28;5021857;28;20151;-55
2021/01/06 00:25:37;;;;;;;48.67;19.98;;;;;;;1.75;100.00;101017.16;5027834;28;20042;-54
2021/01/06 00:28:05;;;;;;;40.83;18.30;;;;;;;1.77;100.00;101020.53;5019598;28;20037;-54
2021/01/06 00:30:33;;;;;;;46.65;20.40;;;;;;;1.82;100.00;101019.28;5027207;28;20067;-54
2021/01/06 00:33:03;;;;;;;46.05;20.80;;;;;;;1.83;100.00;101015.69;5024878;28;20061;-53
2021/01/06 00:35:30;;;;;;;49.50;19.13;;;;;;;1.84;100.00;101008.63;5027372;28;20486;-56
2021/01/06 00:37:57;;;;;;;43.88;19.42;;;;;;;1.89;100.00;101014.44;5026040;28;20050;-53
2021/01/06 00:40:28;;;;;;;52.78;18.60;;;;;;;1.91;100.00;101012.53;5028321;28;20334;-53
2021/01/06 00:42:56;;;;;;;45.78;20.55;;;;;;;1.90;100.00;101010.88;5027867;28;20076;-51
2021/01/06 00:45:23;;;;;;;46.55;18.67;;;;;;;1.93;100.00;101015.94;5027083;28;20052;-52
2021/01/06 00:47:51;;;;;;;44.10;19.27;;;;;;;1.94;100.00;101012.34;5027560;28;20073;-53
2021/01/06 00:50:22;;;;;;;49.83;20.75;;;;;;;1.93;100.00;101017.69;5028511;28;20105;-55
2021/01/06 00:52:49;;;;;;;43.50;19.90;;;;;;;2.04;100.00;101013.44;5026976;28;20460;-55
2021/01/06 00:55:17;;;;;;;54.10;21.08;;;;;;;1.99;100.00;101012.88;5023320;28;20120;-56
2021/01/06 00:57:44;;;;;;;55.50;20.98;;;;;;;2.01;100.00;101007.50;5025556;28;20076;-53
2021/01/06 01:00:15;;;;;;;49.60;18.88;;;;;;;2.08;100.00;101008.78;5025310;28;20536;-50
2021/01/06 01:02:49;;;;;;;42.30;19.00;;;;;;;1.98;100.00;101000.66;5025714;28;20048;-52
2021/01/06 01:05:21;;;;;;;44.80;20.17;;;;;;;2.01;100.00;101003.09;5023954;28;20041;-53
2021/01/06 01:07:48;;;;;;;45.13;18.50;;;;;;;2.01;100.00;101003.09;5022296;28;20148;-53
2021/01/06 01:10:32;;;;;;;38.10;19.00;;;;;;;2.06;100.00;101006.25;5027824;28;20045;-52
2021/01/06 01:13:04;;;;;;;41.45;18.85;;;;;;;2.01;100.00;101000.47;5028950;28;20441;-56
2021/01/06 01:15:35;;;;;;;42.78;19.42;;;;;;;2.00;100.00;101004.03;5024963;28;20251;-53
2021/01/06 01:18:03;;;;;;;45.65;20.17;;;;;;;2.01;100.00;101008.38;5023725;28;20041;-54
2021/01/06 01:20:31;;;;;;;44.80;19.75;;;;;;;2.11;99.86;101008.56;5026303;28;20329;-55
2021/01/06 01:22:58;;;;;;;44.03;19.23;;;;;;;2.05;100.00;101007.19;5024246;28;20118;-56
2021/01/06 01:25:27;;;;;;;46.47;18.98;;;;;;;2.10;99.88;101008.66;5025183;28;20441;-55
2021/01/06 01:27:56;;;;;;;44.15;18.63;;;;;;;2.11;99.20;101002.47;5020934;28;20323;-54
2021/01/06 01:30:24;;;;;;;41.00;17.92;;;;;;;1.93;99.39;101008.03;5028722;28;20037;-54
2021/01/06 01:32:51;;;;;;;43.17;17.17;;;;;;;2.06;99.07;101008.06;5028570;28;20041;-53
2021/01/06 01:35:23;;;;;;;38.47;17.45;;;;;;;2.08;99.31;101005.31;5027003;28;20124;-54
2021/01/06 01:37:56;;;;;;;37.25;18.90;;;;;;;2.13;99.13;101008.50;5028561;28;20345;-54
2021/01/06 01:40:25;;;;;;;32.08;15.13;;;;;;;2.12;98.78;101007.63;5026583;28;20037;-55
2021/01/06 01:42:53;;;;;;;43.78;17.15;;;;;;;2.10;98.58;101011.31;5026597;28;20084;-54
2021/01/06 01:45:25;;;;;;;38.30;16.27;;;;;;;2.13;99.02;101016.41;5026460;28;20041;-55
2021/01/06 01:47:56;;;;;;;34.92;15.07;;;;;;;2.20;98.63;101013.22;5028031;28;20041;-54
2021/01/06 01:50:24;;;;;;;36.65;15.05;;;;;;;2.17;98.46;101012.56;5029510;28;20434;-53
2021/01/06 01:52:58;;;;;;;36.53;16.58;;;;;;;2.11;99.03;101007.72;5023861;28;20060;-54
2021/01/06 01:55:27;;;;;;;39.25;17.83;;;;;;;2.07;98.85;101009.75;5026586;28;20053;-54
2021/01/06 01:57:58;;;;;;;36.08;16.65;;;;;;;2.13;98.63;101003.22;5026568;28;20044;-53
2021/01/06 02:00:28;;;;;;;35.28;15.23;;;;;;;2.18;98.92;101009.00;5028508;28;20485;-53
2021/01/06 02:03:03;;;;;;;36.10;15.50;;;;;;;2.07;98.33;101009.75;5028824;28;20147;-55
2021/01/06 02:05:33;;;;;;;36.90;15.18;;;;;;;2.21;98.18;101011.41;5025016;28;20051;-55
2021/01/06 02:08:08;;;;;;;30.30;14.18;;;;;;;2.22;97.96;101011.31;5031458;28;20038;-53
2021/01/06 02:10:37;;;;;;;29.80;13.82;;;;;;;2.17;97.91;101013.44;5026832;28;20038;-55
2021/01/06 02:13:08;;;;;;;31.45;13.93;;;;;;;2.22;97.76;100999.94;5024860;28;20045;-55
2021/01/06 02:15:41;;;;;;;32.50;14.68;;;;;;;2.18;97.69;101009.88;5026724;28;20464;-54
2021/01/06 02:18:11;;;;;;;28.67;13.65;;;;;;;2.22;98.14;101007.84;5025961;28;20069;-55
2021/01/06 02:20:37;;;;;;;29.45;14.73;;;;;;;2.20;97.44;100997.41;5031368;28;20053;-54
2021/01/06 02:23:06;;;;;;;27.05;12.65;;;;;;;2.25;97.93;100997.09;5028675;28;20333;-55
2021/01/06 02:25:33;;;;;;;35.88;14.90;;;;;;;2.15;97.72;101009.22;5028634;28;20048;-54
2021/01/06 02:28:01;;;;;;;30.50;14.55;;;;;;;2.21;97.33;101007.00;5024424;28;20056;-54
2021/01/06 02:30:29;;;;;;;33.42;15.13;;;;;;;2.24;97.73;100998.06;5025189;28;20122;-54
2021/01/06 02:32:59;;;;;;;32.03;14.25;;;;;;;2.15;97.52;101002.16;5021933;28;20042;-55
2021/01/06 02:35:26;;;;;;;28.50;14.07;;;;;;;2.20;97.60;100993.94;5024281;28;20045;-55
2021/01/06 02:37:53;;;;;;;33.13;14.70;;;;;;;2.22;97.36;101010.47;5028919;28;20055;-53
2021/01/06 02:40:25;;;;;;;31.17;14.38;;;;;;;2.16;97.64;101006.47;5029856;28;20441;-55
2021/01/06 02:42:53;;;;;;;31.92;14.75;;;;;;;2.13;97.94;101001.41;5025320;28;20052;-56
2021/01/06 02:45:20;;;;;;;32.53;15.02;;;;;;;2.22;98.10;101005.22;5028244;28;20136;-55
2021/01/06 02:47:48;;;;;;;29.20;13.13;;;;;;;2.20;98.38;101001.84;5029120;28;20068;-52
2021/01/06 02:50:17;;;;;;;31.30;14.05;;;;;;;2.11;98.33;101007.72;5026417;28;20038;-55
2021/01/06 02:52:47;;;;;;;29.10;12.88;;;;;;;2.24;98.35;100998.06;5026185;28;20042;-56
2021/01/06 02:55:17;;;;;;;33.65;15.05;;;;;;;2.12;98.31;100996.25;5029145;28;20041;-55
2021/01/06 02:57:47;;;;;;;28.83;15.30;;;;;;;2.24;98.05;100998.06;5028250;28;20436;-55
2021/01/06 03:00:17;;;;;;;28.60;13.80;;;;;;;2.17;98.39;100996.75;5027788;28;20045;-55
2021/01/06 03:02:44;;;;;;;26.63;12.98;;;;;;;2.18;98.70;100998.47;5027168;28;20052;-53
2021/01/06 03:05:18;;;;;;;32.78;13.50;;;;;;;2.19;98.32;100992.25;5027575;28;20049;-53
2021/01/06 03:07:46;;;;;;;28.42;14.15;;;;;;;2.22;99.05;100997.31;5022751;28;20050;-55
2021/01/06 03:10:16;;;;;;;30.42;15.70;;;;;;;2.27;99.19;100989.94;5031138;28;20310;-54
2021/01/06 03:12:44;;;;;;;34.20;14.80;;;;;;;2.19;99.40;101000.16;5025079;28;20336;-55
2021/01/06 03:15:14;;;;;;;32.38;14.88;;;;;;;2.28;99.25;100993.41;5022820;28;20124;-54
2021/01/06 03:17:41;;;;;;;28.10;13.70;;;;;;;2.32;99.07;100995.72;5022657;28;20041;-55
2021/01/06 03:20:10;;;;;;;26.98;12.27;;;;;;;2.30;99.48;101000.28;5012923;28;20034;-54
2021/01/06 03:22:39;;;;;;;28.98;14.38;;;;;;;2.35;98.88;100992.91;5024372;28;20328;-56
2021/01/06 03:25:08;;;;;;;26.63;13.20;;;;;;;2.20;98.99;100996.59;5021938;28;20144;-56
2021/01/06 03:27:38;;;;;;;32.95;14.02;;;;;;;2.22;99.54;100989.41;5028204;28;20216;-54
2021/01/06 03:30:09;;;;;;;28.95;13.13;;;;;;;2.31;99.38;100983.50;5030293;28;20052;-52
2021/01/06 03:32:42;;;;;;;32.97;14.65;;;;;;;2.24;99.98;100985.72;5024663;28;20341;-53
2021/01/06 03:35:16;;;;;;;31.55;15.13;;;;;;;2.22;99.66;100989.41;5024550;28;20119;-54
2021/01/06 03:37:48;;;;;;;29.00;13.98;;;;;;;2.31;99.79;100988.78;5025548;28;20057;-54
2021/01/06 03:40:19;;;;;;;30.80;14.05;;;;;;;2.41;99.52;100989.84;5025272;28;20050;-55
2021/01/06 03:42:46;;;;;;;30.90;15.05;;;;;;;2.30;99.44;100987.09;5026827;28;20042;-53
2021/01/06 03:45:17;;;;;;;30.73;16.13;;;;;;;2.23;99.77;100991.09;5024729;28;20488;-55
2021/01/06 03:47:46;;;;;;;28.67;13.02;;;;;;;2.29;99.98;100993.31;5022524;28;20061;-54
2021/01/06 03:50:20;;;;;;;30.40;15.27;;;;;;;2.27;100.00;100989.09;5027979;28;20072;-55
2021/01/06 03:52:56;;;;;;;31.10;14.32;;;;;;;2.27;100.00;100991.72;5025035;28;20045;-54
2021/01/06 03:55:34;;;;;;;26.80;13.82;;;;;;;2.30;100.00;100992.38;5024502;28;20045;-55
2021/01/06 03:58:01;;;;;;;29.50;13.52;;;;;;;2.28;100.00;100985.50;5023754;28;20046;-53
2021/01/06 04:00:38;;;;;;;30.17;14.40;;;;;;;2.17;100.00;100986.22;5028812;28;20154;-55
2021/01/06 04:03:10;;;;;;;26.65;14.20;;;;;;;2.26;100.00;100990.88;5026249;28;20060;-55
2021/01/06 04:05:37;;;;;;;32.17;14.70;;;;;;;2.24;100.00;100983.09;5026834;28;20148;-54
2021/01/06 04:08:05;;;;;;;27.02;13.10;;;;;;;2.28;100.00;100978.44;5023423;28;20226;-56
2021/01/06 04:10:36;;;;;;;30.00;14.52;;;;;;;2.22;100.00;100984.13;5027039;28;20120;-55
2021/01/06 04:13:04;;;;;;;26.45;13.25;;;;;;;2.21;100.00;100985.06;5021954;28;20137;-51
2021/01/06 04:15:32;;;;;;;32.25;14.38;;;;;;;2.29;100.00;100979.28;5022962;28;20057;-55
2021/01/06 04:17:59;;;;;;;29.92;13.23;;;;;;;2.31;100.00;100972.97;5024091;28;20056;-55
2021/01/06 04:20:32;;;;;;;33.00;15.40;;;;;;;2.28;100.00;100972.31;5026116;28;20029;-54
2021/01/06 04:23:00;;;;;;;33.58;14.32;;;;;;;2.26;100.00;100977.72;5025002;28;20049;-54
2021/01/06 04:25:29;;;;;;;25.88;13.20;;;;;;;2.18;100.00;100982.66;5024988;28;20045;-54
2021/01/06 04:28:00;;;;;;;31.73;13.57;;;;;;;2.26;100.00;100977.72;5018589;28;20462;-52
2021/01/06 04:30:33;;;;;;;27.23;12.52;;;;;;;2.27;100.00;100974.13;5028098;28;20071;-54
2021/01/06 04:33:03;;;;;;;31.65;14.05;;;;;;;2.26;100.00;100972.44;5026409;28;20269;-54
2021/01/06 04:35:31;;;;;;;33.45;14.60;;;;;;;2.19;100.00;100973.81;5026280;28;20034;-54
2021/01/06 04:37:59;;;;;;;30.38;14.20;;;;;;;2.23;100.00;100970.84;5026254;28;20060;-54
2021/01/06 04:40:28;;;;;;;28.85;13.95;;;;;;;2.31;100.00;100972.09;5030474;28;20064;-53
2021/01/06 04:42:59;;;;;;;30.10;13.73;;;;;;;2.26;100.00;100967.16;5021683;28;20061;-54
2021/01/06 04:45:33;;;;;;;29.83;13.80;;;;;;;2.29;100.00;100971.38;5025379;28;20038;-54
2021/01/06 04:48:17;;;;;;;30.90;12.55;;;;;;;2.17;100.00;100975.69;5027138;28;20320;-55
2021/01/06 04:51:12;;;;;;;35.20;15.95;;;;;;;2.20;100.00;100971.06;5027246;28;20036;-55
2021/01/06 04:53:56;;;;;;;33.75;13.75;;;;;;;2.26;100.00;100975.06;5022537;28;20099;-55
2021/01/06 04:56:47;;;;;;;30.88;12.60;;;;;;;2.35;100.00;100973.59;5024742;28;20060;-55
2021/01/06 04:59:39;;;;;;;33.40;13.27;;;;;;;2.24;100.00;100967.28;5020523;28;20160;-52
2021/01/06 05:02:19;;;;;;;35.60;13.70;;;;;;;2.30;100.00;100965.19;5009777;28;20033;-53
2021/01/06 05:05:19;;;;;;;28.73;14.15;;;;;;;2.29;100.00;100960.84;5018503;28;20065;-55
2021/01/06 05:07:57;;;;;;;30.58;14.55;;;;;;;2.32;100.00;100965.91;5009554;28;20072;-56
2021/01/06 05:10:29;;;;;;;31.15;14.65;;;;;;;2.22;100.00;100958.59;5028651;28;20440;-55
2021/01/06 05:13:00;;;;;;;31.48;13.93;;;;;;;2.34;100.00;100962.22;5020615;28;20045;-55
2021/01/06 05:15:40;;;;;;;36.05;16.52;;;;;;;2.38;100.00;100961.06;5022926;28;23952;-55
2021/01/06 05:18:09;;;;;;;33.45;14.50;;;;;;;2.30;100.00;100966.00;5024918;28;20041;-55
2021/01/06 05:20:36;;;;;;;37.80;16.20;;;;;;;2.37;100.00;100959.34;5025298;28;20034;-55
2021/01/06 05:23:05;;;;;;;38.38;17.67;;;;;;;2.29;100.00;100959.03;5027885;28;20045;-54
2021/01/06 05:25:34;;;;;;;33.47;15.93;;;;;;;2.29;100.00;100953.78;5023296;28;20046;-55
2021/01/06 05:28:07;;;;;;;29.30;13.75;;;;;;;2.37;100.00;100962.00;5023878;28;20056;-54
2021/01/06 05:30:35;;;;;;;33.80;13.32;;;;;;;2.30;100.00;100958.09;5025644;28;20337;-55
2021/01/06 05:33:05;;;;;;;31.75;13.32;;;;;;;2.29;100.00;100959.03;5022348;28;20068;-52
2021/01/06 05:35:39;;;;;;;30.65;14.52;;;;;;;2.27;100.00;100960.94;5026847;28;20400;-55
2021/01/06 05:38:06;;;;;;;29.35;13.82;;;;;;;2.29;100.00;100961.69;5017475;28;20038;-54
2021/01/06 05:40:35;;;;;;;35.58;16.05;;;;;;;2.26;100.00;100959.25;5029099;28;20057;-53
2021/01/06 05:43:04;;;;;;;34.58;14.43;;;;;;;2.25;100.00;100954.94;5020541;28;20037;-52
2021/01/06 05:45:38;;;;;;;31.25;12.00;;;;;;;2.29;100.00;100964.31;5025087;28;20057;-54
2021/01/06 05:48:16;;;;;;;26.30;12.00;;;;;;;2.35;100.00;100965.69;5025790;28;20470;-56
2021/01/06 05:55:03;;;;;;;24.45;10.65;;;;;;;2.32;100.00;100964.09;4948010;28;19926;-55
2021/01/06 05:57:45;;;;;;;24.00;11.02;;;;;;;2.31;100.00;100959.78;4963121;28;20339;-53
2021/01/06 06:00:29;;;;;;;30.60;11.30;;;;;;;2.27;100.00;100958.31;4935693;28;20057;-53
2021/01/06 06:03:15;;;;;;;23.85;10.55;;;;;;;2.30;100.00;100966.00;4965139;28;20141;-53
2021/01/06 06:05:48;;;;;;;25.52;11.77;;;;;;;2.28;100.00;100962.63;4959009;28;20050;-55
2021/01/06 06:08:44;;;;;;;23.25;11.52;;;;;;;2.29;100.00;100964.31;4960543;28;20129;-52
2021/01/06 06:11:38;;;;;;;28.92;12.27;;;;;;;2.30;100.00;100967.81;4970619;28;20182;-54
2021/01/06 06:14:24;;;;;;;23.17;10.02;;;;;;;2.30;100.00;100968.63;5015867;28;20045;-55
2021/01/06 06:16:58;;;;;;;24.67;10.15;;;;;;;2.34;100.00;100966.63;5016906;28;20068;-54
2021/01/06 06:19:43;;;;;;;22.02;10.73;;;;;;;2.31;100.00;100967.69;5041813;28;20482;-55
2021/01/06 06:22:16;;;;;;;27.83;11.27;;;;;;;2.33;100.00;100962.31;5032614;28;20059;-55
2021/01/06 06:24:48;;;;;;;25.52;12.18;;;;;;;2.33;100.00;100972.88;5045346;28;20049;-54
2021/01/06 06:27:38;;;;;;;28.10;11.40;;;;;;;2.33;100.00;100976.34;5047488;28;20067;-55
2021/01/06 06:30:28;;;;;;;24.20;10.85;;;;;;;2.30;100.00;100973.91;5046050;28;20048;-54
2021/01/06 06:32:58;;;;;;;25.20;9.98;;;;;;;2.44;100.00;100977.38;5046530;28;20090;-53
2021/01/06 06:35:33;;;;;;;25.92;10.73;;;;;;;2.38;100.00;100973.38;5045819;28;20434;-55
2021/01/06 06:38:05;;;;;;;26.23;11.43;;;;;;;2.35;100.00;100978.84;5047160;28;20048;-55
2021/01/06 06:40:53;;;;;;;24.50;11.48;;;;;;;2.30;100.00;100976.56;5045572;28;20146;-54
2021/01/06 06:43:34;;;;;;;23.58;11.07;;;;;;;2.41;100.00;100986.38;5043437;28;20268;-56
2021/01/06 06:46:11;;;;;;;28.60;13.23;;;;;;;2.32;100.00;100985.19;5046189;28;20052;-52
2021/01/06 06:48:53;;;;;;;30.10;13.40;;;;;;;2.33;100.00;100989.50;5042091;28;20057;-55
2021/01/06 06:51:24;;;;;;;29.73;12.82;;;;;;;2.35;100.00;100989.41;5042898;28;20134;-53
2021/01/06 06:53:55;;;;;;;28.23;14.68;;;;;;;2.32;100.00;100989.63;5047018;28;20053;-55
2021/01/06 06:56:29;;;;;;;32.25;13.50;;;;;;;2.32;100.00;101000.16;5046306;28;20048;-55
2021/01/06 06:59:02;;;;;;;30.05;14.32;;;;;;;2.27;100.00;100991.72;5046473;28;20063;-51
2021/01/06 07:01:34;;;;;;;28.05;13.05;;;;;;;2.23;100.00;100991.94;5046460;28;20045;-55
2021/01/06 07:04:03;;;;;;;29.92;13.68;;;;;;;2.32;100.00;100995.72;5042439;28;20068;-55
2021/01/06 07:06:31;;;;;;;28.08;12.32;;;;;;;2.32;100.00;100990.44;5044004;28;20547;-52
2021/01/06 07:09:00;;;;;;;30.40;14.23;;;;;;;2.26;100.00;100987.41;5045369;28;20322;-55
2021/01/06 07:11:31;;;;;;;30.38;13.57;;;;;;;2.31;100.00;100996.69;5045773;28;20498;-54
2021/01/06 07:14:05;;;;;;;33.00;15.65;;;;;;;2.30;100.00;100997.63;5046529;28;20465;-55
2021/01/06 07:16:35;;;;;;;34.55;16.30;;;;;;;2.22;100.00;100999.94;5046083;28;20072;-55
2021/01/06 07:19:20;;;;;;;32.10;13.95;;;;;;;2.33;100.00;100997.41;5047723;28;20049;-55
2021/01/06 07:21:52;;;;;;;33.88;14.07;;;;;;;2.28;100.00;100999.50;5037773;28;20132;-54
2021/01/06 07:24:22;;;;;;;33.97;13.13;;;;;;;2.27;100.00;100991.72;5046166;28;20047;-55
2021/01/06 07:26:52;;;;;;;31.75;14.27;;;;;;;2.25;100.00;101002.38;5045935;28;20428;-52
2021/01/06 07:29:20;;;;;;;30.35;16.17;;;;;;;2.30;100.00;101007.34;5044789;28;20449;-52
2021/01/06 07:31:54;;;;;;;32.08;13.70;;;;;;;2.22;100.00;101006.03;5043405;28;20037;-51
2021/01/06 07:34:29;;;;;;;30.55;14.32;;;;;;;2.28;100.00;101015.31;5043036;28;20426;-54
2021/01/06 07:36:58;;;;;;;35.83;15.03;;;;;;;2.24;100.00;101017.34;5040707;28;20041;-55
2021/01/06 07:39:28;;;;;;;35.83;14.70;;;;;;;2.29;100.00;101016.19;5045628;28;20107;-50
2021/01/06 07:41:56;;;;;;;36.08;15.02;;;;;;;2.22;100.00;101015.75;5043671;28;20076;-54
2021/01/06 07:44:28;;;;;;;35.92;15.10;;;;;;;2.26;100.00;101025.16;5044102;28;20037;-55
2021/01/06 07:47:08;;;;;;;39.58;16.55;;;;;;;2.17;100.00;101025.75;5044282;28;20051;-53
2021/01/06 07:49:44;;;;;;;40.30;17.52;;;;;;;2.16;100.00;101027.56;5045037;28;20044;-53
2021/01/06 07:52:38;;;;;;;34.22;15.30;;;;;;;2.13;100.00;101037.47;5044130;28;20041;-55
2021/01/06 07:55:18;;;;;;;36.97;15.00;;;;;;;2.15;100.00;101030.28;5047572;28;20044;-52
2021/01/06 07:57:48;;;;;;;43.33;18.65;;;;;;;2.05;100.00;101030.91;5040619;28;20049;-56
2021/01/06 08:00:25;;;;;;;36.67;14.82;;;;;;;2.08;100.00;101031.66;5040703;28;20377;-50
2021/01/06 08:02:59;;;;;;;42.60;17.27;;;;;;;2.06;100.00;101029.97;5043207;28;20036;-55
2021/01/06 08:05:28;;;;;;;39.92;16.20;;;;;;;2.03;100.00;101037.25;5042197;28;20120;-56
2021/01/06 08:08:06;;;;;;;43.25;17.83;;;;;;;2.00;100.00;101043.56;5043957;28;20376;-54
2021/01/06 08:10:35;;;;;;;42.30;17.58;;;;;;;2.03;100.00;101047.78;5041913;28;20045;-55
2021/01/06 08:13:16;;;;;;;39.20;16.42;;;;;;;2.02;100.00;101043.44;5040543;28;20041;-54
2021/01/06 08:15:45;;;;;;;41.13;16.50;;;;;;;2.00;100.00;101053.22;5040298;28;20067;-52
2021/01/06 08:18:25;;;;;;;38.85;16.30;;;;;;;1.97;100.00;101042.91;5043936;28;20067;-51
2021/01/06 08:21:02;;;;;;;44.47;18.65;;;;;;;2.00;100.00;101048.81;5043522;28;20132;-54
2021/01/06 08:23:45;;;;;;;41.08;18.35;;;;;;;1.92;100.00;101050.28;5041929;28;20044;-53
2021/01/06 08:26:18;;;;;;;51.15;20.05;;;;;;;1.87;100.00;101058.47;5039926;28;20053;-54
2021/01/06 08:28:45;;;;;;;39.58;16.10;;;;;;;1.88;100.00;101054.88;5045042;28;20056;-53
2021/01/06 08:31:17;;;;;;;45.85;18.33;;;;;;;1.88;100.00;101049.63;5041889;28;20041;-56
2021/01/06 08:33:49;;;;;;;39.88;16.55;;;;;;;1.87;100.00;101055.81;5041744;28;20086;-56
2021/01/06 08:36:22;;;;;;;44.85;16.73;;;;;;;1.92;100.00;101055.53;5044858;28;20041;-54
2021/01/06 08:39:09;;;;;;;38.20;18.48;;;;;;;1.86;100.00;101062.06;5048213;28;20045;-53
2021/01/06 08:41:37;;;;;;;45.17;18.50;;;;;;;1.85;100.00;101068.28;5039295;28;20051;-54
2021/01/06 08:44:05;;;;;;;42.88;17.10;;;;;;;1.91;100.00;101065.22;5042045;28;20428;-54
2021/01/06 08:46:34;;;;;;;40.30;17.48;;;;;;;1.88;100.00;101065.44;5042887;28;20056;-54
2021/01/06 08:49:10;;;;;;;49.28;21.08;;;;;;;1.88;100.00;101071.53;5043001;28;20053;-54
2021/01/06 08:51:37;;;;;;;40.83;18.00;;;;;;;1.89;100.00;101069.75;5044022;28;20364;-55
2021/01/06 08:54:16;;;;;;;45.40;18.77;;;;;;;1.91;100.00;101067.03;5042151;28;20055;-54
2021/01/06 08:56:44;;;;;;;46.03;17.45;;;;;;;1.88;100.00;101071.53;5041990;28;20041;-55
2021/01/06 08:59:28;;;;;;;50.45;18.23;;;;;;;1.92;100.00;101077.44;5043903;28;20045;-53
2021/01/06 09:01:58;;;;;;;46.45;20.42;;;;;;;1.90;100.00;101074.09;5040492;28;20045;-55
2021/01/06 09:04:36;;;;;;;41.65;17.02;;;;;;;1.93;100.00;101076.50;5045455;28;20044;-52
2021/01/06 09:07:13;;;;;;;43.25;17.75;;;;;;;1.94;100.00;101074.72;5039898;28;20048;-55
2021/01/06 09:09:56;;;;;;;43.50;17.35;;;;;;;1.93;100.00;101073.88;5041290;28;20045;-55
2021/01/06 09:12:28;;;;;;;40.33;17.40;;;;;;;1.96;100.00;101076.31;5044289;28;20311;-53
2021/01/06 09:14:57;;;;;;;49.17;22.80;;;;;;;1.82;100.00;101077.22;5041897;28;20044;-53
2021/01/06 09:17:31;;;;;;;53.97;21.13;;;;;;;1.93;100.00;101081.78;5044927;28;20048;-51
2021/01/06 09:20:05;;;;;;;47.25;19.55;;;;;;;1.90;100.00;101076.72;5043050;28;20045;-55
2021/01/06 09:22:32;;;;;;;48.72;21.08;;;;;;;1.94;100.00;101082.63;5042970;28;20074;-54
2021/01/06 09:24:58;;;;;;;50.40;18.83;;;;;;;2.00;100.00;101085.69;5045450;28;20051;-52
2021/01/06 09:27:41;;;;;;;46.85;18.98;;;;;;;1.98;100.00;101077.03;5042705;28;20099;-53
2021/01/06 09:30:20;;;;;;;45.47;16.83;;;;;;;1.99;100.00;101078.75;5042292;28;20099;-53
2021/01/06 09:32:48;;;;;;;44.45;19.25;;;;;;;1.93;100.00;101078.28;5038771;28;20125;-54
2021/01/06 09:35:17;;;;;;;47.40;19.73;;;;;;;1.98;100.00;101082.31;5039078;28;20049;-53
2021/01/06 09:37:51;;;;;;;49.75;20.60;;;;;;;2.02;100.00;101086.44;5043369;28;20045;-54
2021/01/06 09:40:20;;;;;;;50.90;20.55;;;;;;;2.11;100.00;101082.34;5039534;28;20033;-53
2021/01/06 09:42:52;;;;;;;51.47;20.52;;;;;;;2.04;100.00;101092.47;5024792;28;20045;-53
2021/01/06 09:45:21;;;;;;;51.28;21.48;;;;;;;2.06;100.00;101082.66;5043871;28;20056;-52
2021/01/06 09:47:49;;;;;;;54.13;20.55;;;;;;;2.11;100.00;101084.97;5040893;28;20219;-52
2021/01/06 09:50:19;;;;;;;47.50;19.58;;;;;;;2.20;100.00;101088.81;5044104;28;20041;-54
2021/01/06 09:52:48;;;;;;;55.05;21.75;;;;;;;2.21;100.00;101085.22;5045226;28;20049;-54
2021/01/06 09:55:18;;;;;;;42.55;18.00;;;;;;;2.22;100.00;101085.09;5048677;28;20115;-55
2021/01/06 09:57:50;;;;;;;52.60;21.70;;;;;;;2.28;100.00;101075.94;5048975;28;20476;-53
2021/01/06 10:00:32;;;;;;;47.13;18.65;;;;;;;2.47;100.00;101082.63;5047149;28;20333;-54
2021/01/06 10:03:00;;;;;;;40.13;19.02;;;;;;;2.40;100.00;101082.19;5048446;28;20049;-55
2021/01/06 10:05:41;;;;;;;45.45;19.13;;;;;;;2.45;100.00;101087.16;5046366;28;20037;-52
2021/01/06 10:08:19;;;;;;;52.05;21.65;;;;;;;2.54;100.00;101081.28;5046734;28;20321;-50
2021/01/06 10:10:50;;;;;;;51.60;22.13;;;;;;;2.61;100.00;101079.91;5041647;28;20049;-55
2021/01/06 10:13:28;;;;;;;41.90;18.13;;;;;;;2.55;100.00;101081.16;5046388;28;20052;-55
2021/01/06 10:15:58;;;;;;;40.83;16.20;;;;;;;2.40;100.00;101079.56;5046506;28;20456;-55
2021/01/06 10:18:41;;;;;;;39.30;17.30;;;;;;;2.50;100.00;101077.16;5048719;28;20051;-55
2021/01/06 10:21:17;;;;;;;38.05;17.15;;;;;;;2.70;100.00;101073.16;5047987;28;20033;-53
2021/01/06 10:24:02;;;;;;;38.53;17.38;;;;;;;2.61;100.00;101074.63;5046747;28;20045;-55
2021/01/06 10:26:39;;;;;;;39.30;16.13;;;;;;;2.59;100.00;101071.22;5046743;28;20053;-52
2021/01/06 10:29:13;;;;;;;31.58;17.05;;;;;;;2.59;100.00;101068.59;5047997;28;20048;-53
2021/01/06 10:32:03;;;;;;;44.08;17.70;;;;;;;2.46;100.00;101075.66;5043656;28;20340;-52
2021/01/06 10:34:34;;;;;;;35.10;16.10;;;;;;;2.34;100.00;101065.00;5048082;28;20045;-52
2021/01/06 10:37:11;;;;;;;40.42;17.52;;;;;;;2.37;100.00;101066.59;5041869;28;20050;-54
2021/01/06 10:39:41;;;;;;;35.22;16.00;;;;;;;2.43;100.00;101065.34;5043584;28;20037;-54
2021/01/06 10:42:33;;;;;;;34.97;14.77;;;;;;;2.50;99.19;101061.34;5044976;28;20063;-54
2021/01/06 10:45:12;;;;;;;34.88;15.43;;;;;;;2.56;99.19;101061.75;5045069;28;20044;-52
2021/01/06 10:47:42;;;;;;;31.15;12.93;;;;;;;2.56;98.96;101066.19;5046004;28;20041;-54
2021/01/06 10:50:43;;;;;;;31.30;14.20;;;;;;;2.67;98.10;101063.66;5036369;28;20164;-54
2021/01/06 10:53:25;;;;;;;33.92;14.38;;;;;;;2.61;98.23;101056.16;5045874;28;20114;-53
2021/01/06 10:56:01;;;;;;;29.85;14.93;;;;;;;2.70;98.26;101052.88;5041939;28;20056;-53
2021/01/06 10:58:42;;;;;;;30.35;15.07;;;;;;;2.66;98.07;101051.41;5047603;28;20041;-54
2021/01/06 11:01:53;;;;;;;31.55;14.43;;;;;;;2.47;98.39;101051.84;5045825;28;20040;-57
2021/01/06 11:04:29;;;;;;;32.72;15.32;;;;;;;2.51;99.23;101053.31;5042586;28;20048;-53
2021/01/06 11:07:01;;;;;;;33.63;14.73;;;;;;;2.38;99.86;101048.03;5048248;28;20049;-55
2021/01/06 11:09:50;;;;;;;49.42;17.45;;;;;;;2.28;99.62;101051.38;5048473;28;20041;-53
2021/01/06 11:12:46;;;;;;;35.58;14.55;;;;;;;2.31;99.34;101052.03;5040891;28;20048;-53
2021/01/06 11:15:40;;;;;;;38.33;16.73;;;;;;;2.12;100.00;101047.16;5023247;28;20381;-53
2021/01/06 11:18:18;;;;;;;34.97;13.98;;;;;;;2.09;100.00;101047.34;5043117;28;20071;-51
2021/01/06 11:20:49;;;;;;;39.80;18.27;;;;;;;2.05;100.00;101045.88;5044417;28;20405;-52
2021/01/06 11:23:50;;;;;;;31.40;14.30;;;;;;;2.15;100.00;101046.94;5050266;28;20499;-55
2021/01/06 11:26:52;;;;;;;43.65;17.27;;;;;;;2.12;100.00;101041.03;5045771;28;20045;-52
2021/01/06 11:29:49;;;;;;;30.52;15.35;;;;;;;2.05;100.00;101038.81;5047293;28;20052;-51
2021/01/06 11:32:30;;;;;;;30.58;13.05;;;;;;;2.06;100.00;101032.59;5037791;28;20147;-50
2021/01/06 11:35:14;;;;;;;30.15;13.25;;;;;;;2.01;100.00;101033.84;5045373;28;20040;-52
2021/01/06 11:37:43;;;;;;;33.33;16.40;;;;;;;1.94;100.00;101036.03;5044497;28;20047;-54
2021/01/06 11:40:16;;;;;;;34.90;15.95;;;;;;;1.89;100.00;101040.78;5044657;28;20241;-53
2021/01/06 11:42:52;;;;;;;37.65;16.52;;;;;;;1.97;100.00;101030.59;5046246;28;20063;-55
2021/01/06 11:45:21;;;;;;;36.03;14.55;;;;;;;1.91;100.00;101028.34;5043735;28;20072;-53